KHHF

Hemphill County Airport

Canadian, Texas, USA
METAR KHHF 161415Z AUTO 26005KT 10SM CLR 02/M04 A2986 RMK AO2 T00151041
Observed Flight Rules
Dec-16 @ 14:15 UTC (25 minutes ago) Visual Flight Rules
Wind Visibility Clouds
260° at 5 knots 10 miles
  • Clear skies
Temperatures Readings
Current 2°C / 36°F
Dewpoint -4°C / 25°F
Humidity 65%
Altimeter 29.86" Hg
Pressure 1011 hPa
Elevation 712
METAR KHHF 161415Z AUTO 26005KT 10SM CLR 02/M04 A2986 RMK AO2 T00151041
Observed Flight Rules
Dec-16 @ 14:15 UTC
(25 minutes ago)
VFR
Wind Visibility
260° at 5 knots 10 miles
Clouds
  • Clear skies
Temperature Dewpoint
2°C / 36°F -4°C / 25°F
Humidity Altimeter Pressure
65% 29.86" Hg 1011 hPa